Time;durP1;ratioP1;P1;durP2;ratioP2;P2;SDS_P1;SDS_P2;PMS_P1;PMS_P2;Temp;Humidity;BMP_temperature;BMP_pressure;BME280_temperature;BME280_humidity;BME280_pressure;Samples;Min_cycle;Max_cycle;Signal;HPM_P1;HPM_P2
2024/03/18 00:00:16;;;;;;;17.27;10.60;;;;;;;15.83;100.00;101022.22;5057596;28;20056;-63
2024/03/18 00:02:47;;;;;;;17.05;10.43;;;;;;;15.60;100.00;101021.75;5071509;28;20056;-62
2024/03/18 00:05:15;;;;;;;17.10;10.18;;;;;;;15.72;100.00;101011.53;5032944;28;20496;-61
2024/03/18 00:07:42;;;;;;;17.40;10.25;;;;;;;15.86;100.00;101027.06;5050098;28;20083;-62
2024/03/18 00:10:09;;;;;;;21.42;10.05;;;;;;;15.75;100.00;101021.13;5064778;28;20412;-62
2024/03/18 00:12:36;;;;;;;17.80;9.88;;;;;;;15.81;100.00;101011.44;5035773;28;20048;-63
2024/03/18 00:15:03;;;;;;;16.33;10.05;;;;;;;15.88;100.00;101008.94;5035239;28;20053;-62
2024/03/18 00:17:30;;;;;;;17.30;9.90;;;;;;;15.99;100.00;101015.66;5053396;28;20049;-62
2024/03/18 00:19:56;;;;;;;18.27;9.88;;;;;;;15.84;100.00;101012.72;5047382;28;20060;-62
2024/03/18 00:22:23;;;;;;;18.27;9.25;;;;;;;15.83;100.00;101011.88;5048772;28;20059;-62
2024/03/18 00:24:50;;;;;;;15.82;8.05;;;;;;;15.77;100.00;101011.31;5049037;28;20041;-61
2024/03/18 00:27:16;;;;;;;16.45;8.80;;;;;;;15.75;100.00;100996.13;5056438;28;20044;-63
2024/03/18 00:29:43;;;;;;;19.45;10.15;;;;;;;15.93;100.00;101005.94;5036287;28;20059;-63
2024/03/18 00:32:12;;;;;;;19.15;8.85;;;;;;;15.96;100.00;101007.19;5054731;28;20052;-63
2024/03/18 00:34:38;;;;;;;17.85;9.20;;;;;;;16.09;99.42;101012.44;5057139;28;20176;-62
2024/03/18 00:37:04;;;;;;;17.23;9.07;;;;;;;15.92;99.31;101012.63;5036258;28;20044;-62
2024/03/18 00:39:31;;;;;;;17.77;8.98;;;;;;;15.79;100.00;101008.97;5062483;28;20053;-62
2024/03/18 00:41:59;;;;;;;14.68;7.75;;;;;;;15.70;100.00;100999.13;5053696;28;20540;-64
2024/03/18 00:44:26;;;;;;;18.40;8.63;;;;;;;15.71;100.00;101007.09;5051340;28;20049;-62
2024/03/18 00:46:55;;;;;;;17.13;7.90;;;;;;;15.81;100.00;101002.28;5051785;28;20041;-62
2024/03/18 00:49:22;;;;;;;13.63;8.18;;;;;;;15.93;100.00;101005.94;5062512;28;20056;-63
2024/03/18 00:51:48;;;;;;;16.92;7.88;;;;;;;15.98;99.71;100996.56;5060264;28;20057;-63
2024/03/18 00:54:15;;;;;;;16.98;7.72;;;;;;;16.06;98.87;101010.34;5040957;28;20049;-62
2024/03/18 00:56:42;;;;;;;13.82;7.60;;;;;;;16.06;98.65;101002.03;5050904;28;20041;-61
2024/03/18 00:59:09;;;;;;;12.73;8.35;;;;;;;15.76;100.00;101003.28;5049344;28;20120;-63
2024/03/18 01:01:37;;;;;;;17.90;8.57;;;;;;;15.83;100.00;100994.44;5041632;28;20075;-63
2024/03/18 01:04:04;;;;;;;14.55;8.23;;;;;;;15.76;100.00;101000.50;5052996;28;20060;-61
2024/03/18 01:06:30;;;;;;;17.70;8.95;;;;;;;15.81;100.00;100996.72;5061156;28;20055;-61
2024/03/18 01:08:59;;;;;;;12.30;8.27;;;;;;;15.78;100.00;100999.03;5042346;28;20067;-61
2024/03/18 01:11:26;;;;;;;16.52;8.15;;;;;;;15.65;100.00;100997.38;5066082;28;20448;-61
2024/03/18 01:13:52;;;;;;;15.35;8.32;;;;;;;15.71;100.00;100987.66;5051276;28;20052;-62
2024/03/18 01:16:21;;;;;;;17.25;8.63;;;;;;;15.56;100.00;100990.25;5051214;28;20040;-60
2024/03/18 01:18:48;;;;;;;13.88;6.97;;;;;;;15.47;100.00;100984.78;5063526;28;20040;-61
2024/03/18 01:21:15;;;;;;;13.07;7.05;;;;;;;15.61;100.00;100985.31;5012685;28;20045;-60
2024/03/18 01:23:41;;;;;;;13.55;7.05;;;;;;;15.60;100.00;100980.09;5046992;28;20045;-60
2024/03/18 01:26:10;;;;;;;14.15;7.72;;;;;;;15.78;100.00;100982.38;5048255;28;20068;-61
2024/03/18 01:28:36;;;;;;;16.45;7.15;;;;;;;15.92;100.00;100975.72;5046591;28;20571;-60
2024/03/18 01:31:05;;;;;;;11.70;6.10;;;;;;;15.60;100.00;100977.31;5047459;28;20649;-60
2024/03/18 01:33:32;;;;;;;13.18;6.22;;;;;;;15.85;99.70;100976.25;5021311;28;20064;-60
2024/03/18 01:35:59;;;;;;;11.90;6.28;;;;;;;15.74;100.00;100975.88;5039888;28;20076;-61
2024/03/18 01:38:26;;;;;;;16.85;6.82;;;;;;;15.54;100.00;100965.63;5049817;28;20048;-59
2024/03/18 01:40:56;;;;;;;11.43;6.15;;;;;;;15.71;100.00;100971.00;5031509;28;20064;-61
2024/03/18 01:43:23;;;;;;;12.27;6.70;;;;;;;15.45;100.00;100961.28;5054682;28;20052;-61
2024/03/18 01:45:49;;;;;;;13.32;6.10;;;;;;;15.97;100.00;100959.63;5050915;28;20071;-61
2024/03/18 01:48:16;;;;;;;11.82;5.65;;;;;;;15.97;98.99;100961.59;5048294;28;20072;-61
2024/03/18 01:50:43;;;;;;;13.30;5.93;;;;;;;15.74;99.57;100952.84;5030203;28;20064;-61
2024/03/18 01:53:10;;;;;;;12.13;5.95;;;;;;;15.59;100.00;100939.59;5030841;28;20076;-61
2024/03/18 01:55:38;;;;;;;14.38;6.40;;;;;;;15.67;100.00;100935.94;5066096;28;20048;-60
2024/03/18 01:58:06;;;;;;;13.90;6.22;;;;;;;15.68;100.00;100934.78;5066667;28;20057;-61
2024/03/18 02:00:36;;;;;;;12.30;6.15;;;;;;;15.65;100.00;100929.91;5061236;28;20052;-61
2024/03/18 02:03:07;;;;;;;14.93;6.07;;;;;;;15.69;100.00;100939.19;5047051;28;20424;-60
2024/03/18 02:05:35;;;;;;;12.18;6.30;;;;;;;15.65;100.00;100938.25;5048465;28;20115;-61
2024/03/18 02:08:03;;;;;;;12.45;6.55;;;;;;;15.45;100.00;100933.53;5059815;28;20060;-60
2024/03/18 02:10:29;;;;;;;11.10;5.85;;;;;;;15.35;100.00;100929.19;5030770;28;20056;-60
2024/03/18 02:13:00;;;;;;;10.32;5.90;;;;;;;15.64;100.00;100925.50;5047207;28;20041;-62
2024/03/18 02:15:30;;;;;;;16.00;6.80;;;;;;;15.44;100.00;100929.94;5052969;28;20040;-61
2024/03/18 02:17:56;;;;;;;18.63;6.88;;;;;;;15.86;100.00;100935.41;5046341;28;20057;-62
2024/03/18 02:20:23;;;;;;;12.95;6.30;;;;;;;15.88;99.50;100936.69;5039665;28;20052;-61
2024/03/18 02:22:50;;;;;;;14.35;6.18;;;;;;;15.83;99.50;100939.66;5051258;28;20053;-60
2024/03/18 02:25:17;;;;;;;12.68;5.97;;;;;;;15.47;100.00;100943.13;5059137;28;20052;-62
2024/03/18 02:27:44;;;;;;;13.93;5.97;;;;;;;15.45;100.00;100939.88;5063619;28;20061;-61
2024/03/18 02:30:11;;;;;;;14.60;6.47;;;;;;;15.34;100.00;100932.31;5063192;28;20087;-61
2024/03/18 02:32:41;;;;;;;17.17;7.10;;;;;;;15.51;100.00;100926.63;5051539;28;20048;-60
2024/03/18 02:35:11;;;;;;;10.57;5.50;;;;;;;15.42;100.00;100931.44;5062485;28;20162;-60
2024/03/18 02:37:38;;;;;;;11.80;5.40;;;;;;;15.25;100.00;100910.19;5052077;28;20471;-60
2024/03/18 02:40:08;;;;;;;12.45;5.90;;;;;;;15.44;100.00;100921.63;5046129;28;20814;-61
2024/03/18 02:42:38;;;;;;;14.63;6.45;;;;;;;15.47;100.00;100923.72;5046612;28;20055;-59
2024/03/18 02:45:13;;;;;;;11.38;5.82;;;;;;;15.53;100.00;100925.09;5052923;28;20071;-60
2024/03/18 02:47:41;;;;;;;13.35;5.80;;;;;;;15.55;100.00;100922.81;5050944;28;20050;-60
2024/03/18 02:50:09;;;;;;;11.85;5.03;;;;;;;15.60;100.00;100921.78;5042168;28;20083;-60
2024/03/18 02:52:38;;;;;;;12.10;5.20;;;;;;;15.53;100.00;100933.44;5029034;28;20522;-61
2024/03/18 02:55:05;;;;;;;14.68;5.00;;;;;;;15.51;100.00;100941.31;5047897;28;20056;-61
2024/03/18 02:57:32;;;;;;;8.98;4.85;;;;;;;15.27;100.00;100941.16;5045966;28;20052;-61
2024/03/18 02:59:59;;;;;;;11.98;4.88;;;;;;;15.13;100.00;100939.81;5046069;28;20044;-59
2024/03/18 03:02:26;;;;;;;16.92;5.32;;;;;;;14.82;100.00;100942.97;5047314;28;20060;-61
2024/03/18 03:04:52;;;;;;;19.80;5.28;;;;;;;14.71;100.00;100946.47;5066060;28;20055;-60
2024/03/18 03:07:19;;;;;;;10.45;5.35;;;;;;;14.88;100.00;100938.84;5058954;28;20040;-61
2024/03/18 03:09:45;;;;;;;13.35;5.57;;;;;;;14.84;100.00;100937.88;5045148;28;20056;-60
2024/03/18 03:12:12;;;;;;;10.07;5.45;;;;;;;14.83;100.00;100936.28;5045806;28;20057;-60
2024/03/18 03:14:41;;;;;;;14.13;5.32;;;;;;;15.00;100.00;100932.56;5046043;28;20057;-61
2024/03/18 03:17:08;;;;;;;11.65;4.78;;;;;;;15.07;100.00;100932.84;5029194;28;20057;-59
2024/03/18 03:19:35;;;;;;;10.57;5.18;;;;;;;15.12;100.00;100932.63;5047352;28;20406;-60
2024/03/18 03:22:02;;;;;;;14.68;5.82;;;;;;;15.26;100.00;100933.16;5048071;28;20715;-60
2024/03/18 03:24:29;;;;;;;11.00;6.10;;;;;;;15.39;100.00;100927.34;5029104;28;20456;-61
2024/03/18 03:26:56;;;;;;;11.88;5.32;;;;;;;15.12;100.00;100925.13;5064517;28;20052;-61
2024/03/18 03:29:22;;;;;;;10.35;4.78;;;;;;;15.06;100.00;100931.22;5029094;28;20060;-60
2024/03/18 03:31:48;;;;;;;13.82;4.85;;;;;;;15.28;100.00;100925.31;5049043;28;20084;-60
2024/03/18 03:34:15;;;;;;;9.57;4.80;;;;;;;15.31;100.00;100931.00;5034624;28;20719;-61
2024/03/18 03:36:44;;;;;;;12.93;5.30;;;;;;;15.49;100.00;100949.16;5040593;28;20091;-60
2024/03/18 03:39:11;;;;;;;13.82;5.05;;;;;;;15.16;100.00;100959.38;5031292;28;20057;-61
2024/03/18 03:41:38;;;;;;;11.68;5.18;;;;;;;15.03;100.00;100952.13;5044960;28;20060;-61
2024/03/18 03:44:04;;;;;;;10.55;5.43;;;;;;;14.84;100.00;100962.84;5041845;28;20169;-61
2024/03/18 03:46:31;;;;;;;12.93;6.10;;;;;;;14.77;100.00;100959.00;5061530;28;20041;-62
2024/03/18 03:48:57;;;;;;;11.18;5.78;;;;;;;14.63;100.00;100965.59;5062024;28;20052;-61
2024/03/18 03:51:24;;;;;;;11.98;6.00;;;;;;;14.75;100.00;100973.19;5064895;28;20060;-61
2024/03/18 03:53:50;;;;;;;17.00;5.43;;;;;;;14.88;100.00;100963.81;5042978;28;20424;-60
2024/03/18 03:56:17;;;;;;;12.02;5.50;;;;;;;14.59;100.00;100966.59;5053117;28;20045;-64
2024/03/18 03:58:48;;;;;;;15.43;6.40;;;;;;;14.57;100.00;100982.75;5069519;28;20067;-61
2024/03/18 04:01:14;;;;;;;17.67;6.63;;;;;;;14.44;100.00;100983.78;5064813;28;20056;-61
2024/03/18 04:03:41;;;;;;;14.18;6.78;;;;;;;14.43;100.00;100987.72;5051739;28;20049;-62
2024/03/18 04:06:07;;;;;;;12.15;5.30;;;;;;;14.42;100.00;100988.84;5068720;28;20052;-60
2024/03/18 04:08:34;;;;;;;8.90;5.00;;;;;;;14.41;100.00;100996.34;5069325;28;20049;-60
2024/03/18 04:11:00;;;;;;;10.27;4.97;;;;;;;14.32;100.00;100994.75;5068980;28;20045;-61
2024/03/18 04:13:26;;;;;;;10.60;4.80;;;;;;;14.46;100.00;100998.13;5069234;28;20063;-60
2024/03/18 04:15:52;;;;;;;12.85;5.30;;;;;;;14.43;100.00;100996.03;5066995;28;20888;-62
2024/03/18 04:18:19;;;;;;;8.88;5.25;;;;;;;14.00;100.00;100998.88;5052445;28;20056;-61
2024/03/18 04:20:45;;;;;;;9.88;5.20;;;;;;;14.04;100.00;101004.56;5032129;28;20057;-61
2024/03/18 04:23:12;;;;;;;11.52;5.28;;;;;;;14.34;100.00;100998.00;5048886;28;20459;-61
2024/03/18 04:25:38;;;;;;;9.57;5.07;;;;;;;14.38;100.00;100996.22;5059388;28;20051;-61
2024/03/18 04:28:07;;;;;;;10.52;5.38;;;;;;;14.57;100.00;100999.38;5068815;28;20055;-60
2024/03/18 04:30:35;;;;;;;11.48;5.18;;;;;;;14.61;100.00;100997.56;5051443;28;20061;-60
2024/03/18 04:33:01;;;;;;;9.18;4.50;;;;;;;14.62;100.00;101004.75;5053054;28;20049;-60
2024/03/18 04:35:28;;;;;;;10.75;5.45;;;;;;;14.44;100.00;101008.72;5048246;28;20064;-61
2024/03/18 04:37:55;;;;;;;10.57;5.40;;;;;;;14.20;100.00;101014.00;5053707;28;20272;-61
2024/03/18 04:40:23;;;;;;;8.45;5.53;;;;;;;14.07;100.00;101015.81;5067540;28;20404;-60
2024/03/18 04:42:50;;;;;;;10.82;5.70;;;;;;;14.24;100.00;101017.75;5062134;28;20064;-61
2024/03/18 04:45:18;;;;;;;11.05;5.80;;;;;;;14.01;100.00;101019.91;5064313;28;20055;-60
2024/03/18 04:47:52;;;;;;;9.15;5.80;;;;;;;14.10;100.00;101022.66;5036051;28;20060;-60
2024/03/18 04:50:23;;;;;;;9.60;6.15;;;;;;;14.27;100.00;101028.19;5051259;28;20059;-61
2024/03/18 04:52:51;;;;;;;13.68;6.93;;;;;;;14.19;100.00;101015.16;5047287;28;20059;-60
2024/03/18 04:55:18;;;;;;;11.68;6.50;;;;;;;14.33;100.00;101015.78;5047840;28;20045;-60
2024/03/18 04:57:44;;;;;;;15.15;6.97;;;;;;;14.35;100.00;101008.75;5050334;28;20055;-62
2024/03/18 05:00:14;;;;;;;11.95;6.72;;;;;;;14.15;100.00;101011.41;5048073;28;20084;-60
2024/03/18 05:02:44;;;;;;;11.73;7.00;;;;;;;14.22;100.00;101015.31;5047481;28;20064;-61
2024/03/18 05:05:12;;;;;;;14.32;7.97;;;;;;;14.05;100.00;101015.31;5061708;28;20060;-60
2024/03/18 05:07:42;;;;;;;12.88;6.90;;;;;;;14.29;100.00;101010.09;5049303;28;20048;-61
2024/03/18 05:10:10;;;;;;;12.43;7.60;;;;;;;14.25;100.00;101019.34;5051235;28;20064;-60
2024/03/18 05:12:39;;;;;;;11.77;7.18;;;;;;;14.30;100.00;101027.50;5067568;28;20067;-60
2024/03/18 05:15:07;;;;;;;15.57;8.23;;;;;;;13.90;100.00;101028.88;5066061;28;20056;-60
2024/03/18 05:17:34;;;;;;;14.88;8.93;;;;;;;14.11;100.00;101021.50;5050896;28;20298;-61
2024/03/18 05:20:00;;;;;;;20.45;9.32;;;;;;;14.13;100.00;101033.06;5050300;28;20067;-61
2024/03/18 05:22:28;;;;;;;17.55;8.98;;;;;;;13.99;100.00;101040.75;5067765;28;20760;-61
2024/03/18 05:24:54;;;;;;;16.55;9.63;;;;;;;13.83;100.00;101046.00;5050854;28;20574;-60
2024/03/18 05:27:23;;;;;;;13.10;9.60;;;;;;;13.86;100.00;101055.63;5063395;28;20052;-61
2024/03/18 05:29:50;;;;;;;18.67;9.90;;;;;;;13.80;100.00;101054.13;5030634;28;20057;-60
2024/03/18 05:32:18;;;;;;;19.38;10.55;;;;;;;13.67;100.00;101049.59;5047290;28;20064;-60
2024/03/18 05:34:45;;;;;;;18.40;10.05;;;;;;;13.75;100.00;101052.34;5047387;28;20056;-61
2024/03/18 05:37:12;;;;;;;14.25;10.15;;;;;;;13.87;100.00;101055.28;5034475;28;20057;-60
2024/03/18 05:39:39;;;;;;;14.25;9.90;;;;;;;13.88;100.00;101061.63;5049776;28;20053;-61
2024/03/18 05:42:05;;;;;;;15.45;10.13;;;;;;;13.83;100.00;101048.75;5047873;28;20503;-60
2024/03/18 05:44:32;;;;;;;14.18;9.25;;;;;;;13.98;100.00;101055.75;5043402;28;20052;-60
2024/03/18 05:46:59;;;;;;;16.80;9.00;;;;;;;13.91;100.00;101056.25;5044093;28;20058;-62
2024/03/18 05:49:26;;;;;;;16.52;9.63;;;;;;;13.75;100.00;101068.16;5067641;28;20068;-61
2024/03/18 05:51:53;;;;;;;16.23;9.38;;;;;;;13.80;100.00;101066.03;5038936;28;20483;-63
2024/03/18 05:54:20;;;;;;;16.80;9.55;;;;;;;13.67;100.00;101066.19;5047030;28;20060;-60
2024/03/18 05:56:47;;;;;;;13.02;9.40;;;;;;;13.64;100.00;101064.88;5067593;28;20048;-59
2024/03/18 05:59:14;;;;;;;15.32;10.32;;;;;;;13.31;100.00;101063.72;5045157;28;20048;-61
2024/03/18 06:01:42;;;;;;;15.80;10.13;;;;;;;13.45;100.00;101067.97;5046783;28;20057;-60
2024/03/18 06:04:10;;;;;;;21.08;10.15;;;;;;;13.39;100.00;101072.03;5051620;28;20055;-59
2024/03/18 06:06:36;;;;;;;13.73;10.00;;;;;;;13.30;100.00;101073.97;5066312;28;20041;-60
2024/03/18 06:09:04;;;;;;;16.45;9.95;;;;;;;13.32;100.00;101068.91;5066998;28;20048;-59
2024/03/18 06:11:31;;;;;;;22.00;11.18;;;;;;;13.44;100.00;101071.88;5045526;28;20536;-61
2024/03/18 06:13:57;;;;;;;15.02;9.82;;;;;;;13.55;100.00;101081.50;5045000;28;20067;-60
2024/03/18 06:16:24;;;;;;;16.90;10.98;;;;;;;13.40;100.00;101083.91;5032664;28;20060;-61
2024/03/18 06:18:50;;;;;;;15.38;11.05;;;;;;;13.50;100.00;101087.19;5064091;28;20063;-61
2024/03/18 06:21:17;;;;;;;18.20;10.70;;;;;;;13.65;100.00;101094.19;5046701;28;20067;-61
2024/03/18 06:23:53;;;;;;;18.90;10.20;;;;;;;13.58;100.00;101102.19;5052078;28;20045;-65
2024/03/18 06:26:20;;;;;;;15.98;11.07;;;;;;;13.38;100.00;101102.78;5064341;28;20536;-61
2024/03/18 06:28:47;;;;;;;15.73;10.40;;;;;;;13.37;100.00;101106.72;5065363;28;20119;-60
2024/03/18 06:31:14;;;;;;;17.45;11.57;;;;;;;13.53;100.00;101108.69;5066587;28;20052;-61
2024/03/18 06:33:41;;;;;;;20.88;10.32;;;;;;;13.94;100.00;101112.94;5059511;28;20055;-60
2024/03/18 06:36:10;;;;;;;16.58;10.88;;;;;;;13.73;100.00;101115.53;5049244;28;20053;-60
2024/03/18 06:38:38;;;;;;;13.43;9.77;;;;;;;13.66;100.00;101114.38;5058291;28;20681;-61
2024/03/18 06:41:05;;;;;;;15.77;10.57;;;;;;;13.72;100.00;101121.41;5056068;28;20040;-62
2024/03/18 06:43:31;;;;;;;19.13;11.20;;;;;;;13.54;100.00;101124.16;5057669;28;20664;-62
2024/03/18 06:45:58;;;;;;;17.25;10.10;;;;;;;13.68;100.00;101124.00;5065785;28;20048;-62
2024/03/18 06:48:25;;;;;;;17.48;10.50;;;;;;;13.40;100.00;101131.78;5046284;28;20064;-61
2024/03/18 06:50:52;;;;;;;20.38;11.20;;;;;;;13.29;100.00;101122.13;5012992;28;20060;-60
2024/03/18 06:53:18;;;;;;;20.35;11.10;;;;;;;13.24;100.00;101124.25;5029798;28;20060;-61
2024/03/18 06:55:45;;;;;;;19.67;10.38;;;;;;;13.38;100.00;101134.06;5055066;28;20056;-61
2024/03/18 06:58:14;;;;;;;19.45;10.63;;;;;;;13.42;100.00;101132.25;5050549;28;20059;-59
2024/03/18 07:00:41;;;;;;;16.97;9.70;;;;;;;13.68;100.00;101137.84;5055064;28;20053;-61
2024/03/18 07:03:07;;;;;;;15.70;9.75;;;;;;;13.53;100.00;101138.28;5059631;28;20295;-61
2024/03/18 07:05:33;;;;;;;19.38;9.57;;;;;;;13.57;100.00;101144.81;5049330;28;20052;-62
2024/03/18 07:08:00;;;;;;;23.15;10.32;;;;;;;13.84;100.00;101146.50;5049025;28;20055;-64
2024/03/18 07:10:27;;;;;;;17.15;9.65;;;;;;;13.34;100.00;101148.81;5047843;28;20048;-58
2024/03/18 07:12:54;;;;;;;18.60;9.90;;;;;;;13.43;100.00;101146.91;5052608;28;20064;-61
2024/03/18 07:15:21;;;;;;;15.35;8.73;;;;;;;13.66;100.00;101161.44;5051327;28;20048;-62
2024/03/18 07:17:48;;;;;;;13.68;8.38;;;;;;;13.57;100.00;101161.44;5043493;28;20321;-62
2024/03/18 07:20:18;;;;;;;16.48;8.48;;;;;;;13.85;100.00;101151.69;5055762;28;20053;-62
2024/03/18 07:22:45;;;;;;;18.40;8.50;;;;;;;13.63;100.00;101162.09;5053837;28;20055;-62
2024/03/18 07:25:17;;;;;;;20.38;8.55;;;;;;;13.80;100.00;101159.34;5054304;28;20735;-59
2024/03/18 07:27:45;;;;;;;22.88;7.72;;;;;;;14.04;100.00;101159.69;5052798;28;20049;-61
2024/03/18 07:30:12;;;;;;;15.50;7.80;;;;;;;13.85;100.00;101167.50;5054721;28;20512;-60
2024/03/18 07:32:40;;;;;;;19.42;7.80;;;;;;;14.05;100.00;101161.34;5057757;28;20052;-59
2024/03/18 07:35:07;;;;;;;17.27;6.53;;;;;;;14.04;100.00;101176.31;5038136;28;20055;-59
2024/03/18 07:37:33;;;;;;;16.17;6.45;;;;;;;13.98;100.00;101183.97;5055075;28;20051;-59
2024/03/18 07:40:00;;;;;;;15.30;6.65;;;;;;;14.07;100.00;101187.56;5035511;28;20059;-59
2024/03/18 07:42:26;;;;;;;12.48;5.70;;;;;;;13.84;100.00;101193.56;5048672;28;20045;-58
2024/03/18 07:44:56;;;;;;;17.95;5.50;;;;;;;13.82;100.00;101195.84;5047856;28;20076;-61
2024/03/18 07:47:23;;;;;;;16.00;4.57;;;;;;;13.70;100.00;101199.25;5050249;28;20055;-58
2024/03/18 07:49:50;;;;;;;11.95;4.32;;;;;;;13.36;100.00;101201.91;5059380;28;20048;-59
2024/03/18 07:52:18;;;;;;;15.10;4.35;;;;;;;13.40;100.00;101208.44;5061484;28;20349;-59
2024/03/18 07:54:44;;;;;;;17.10;5.03;;;;;;;13.53;100.00;101211.09;5038955;28;20063;-60
2024/03/18 07:57:11;;;;;;;14.00;4.43;;;;;;;13.67;100.00;101212.91;5030605;28;20044;-60
2024/03/18 07:59:37;;;;;;;11.80;4.60;;;;;;;13.67;100.00;101221.22;5031017;28;20064;-59
2024/03/18 08:02:04;;;;;;;18.38;5.30;;;;;;;13.65;100.00;101224.28;5032675;28;20060;-57
2024/03/18 08:04:30;;;;;;;13.30;5.03;;;;;;;13.66;100.00;101225.94;5040212;28;20049;-60
2024/03/18 08:06:56;;;;;;;17.13;5.07;;;;;;;13.59;98.93;101236.66;5061457;28;20476;-59
2024/03/18 08:09:23;;;;;;;17.85;4.45;;;;;;;13.45;97.90;101234.03;5040905;28;20060;-60
2024/03/18 08:11:50;;;;;;;14.20;4.20;;;;;;;13.68;98.99;101250.53;5053589;28;20052;-59
2024/03/18 08:14:18;;;;;;;17.48;4.00;;;;;;;13.54;97.86;101243.19;5059478;28;20045;-60
2024/03/18 08:16:45;;;;;;;14.65;4.35;;;;;;;13.53;98.06;101247.06;5059463;28;20186;-61
2024/03/18 08:19:11;;;;;;;18.80;4.90;;;;;;;13.42;100.00;101242.94;5065281;28;20053;-59
2024/03/18 08:21:37;;;;;;;14.95;4.40;;;;;;;13.66;98.65;101248.09;5029860;28;20060;-58
2024/03/18 08:24:04;;;;;;;14.05;3.30;;;;;;;13.84;97.53;101260.03;5060251;28;20512;-59
2024/03/18 08:26:32;;;;;;;14.73;3.92;;;;;;;13.80;94.85;101259.03;5054393;28;20048;-60
2024/03/18 08:29:02;;;;;;;18.20;4.47;;;;;;;13.44;97.39;101262.81;5060178;28;20041;-58
2024/03/18 08:31:31;;;;;;;16.30;4.20;;;;;;;13.70;97.24;101265.69;5050943;28;20044;-59
2024/03/18 08:33:58;;;;;;;12.25;3.60;;;;;;;13.58;96.26;101262.72;5043813;28;20067;-60
2024/03/18 08:36:25;;;;;;;15.25;4.00;;;;;;;13.69;96.73;101266.00;5051135;28;20045;-59
2024/03/18 08:38:51;;;;;;;20.45;5.30;;;;;;;14.03;95.75;101269.69;5058126;28;20040;-57
2024/03/18 08:41:18;;;;;;;16.60;4.68;;;;;;;13.96;95.88;101274.06;5053177;28;20052;-57
2024/03/18 08:43:44;;;;;;;19.75;4.07;;;;;;;13.82;95.11;101278.91;5045020;28;20063;-58
2024/03/18 08:46:11;;;;;;;18.38;4.72;;;;;;;14.10;94.78;101269.22;5055235;28;20045;-55
2024/03/18 08:48:37;;;;;;;16.90;3.92;;;;;;;14.29;93.21;101273.34;5040458;28;20056;-58
2024/03/18 08:51:04;;;;;;;20.58;3.88;;;;;;;14.26;91.41;101264.88;5059944;28;20051;-58
2024/03/18 08:53:31;;;;;;;17.83;3.80;;;;;;;14.14;93.05;101267.44;5060271;28;20056;-58
2024/03/18 08:55:57;;;;;;;16.33;4.30;;;;;;;14.24;92.61;101276.22;5056938;28;20049;-59
2024/03/18 08:58:23;;;;;;;16.60;3.70;;;;;;;13.80;93.38;101270.94;5066201;28;20873;-57
2024/03/18 09:00:50;;;;;;;16.17;3.40;;;;;;;13.83;93.18;101263.91;5071399;28;20052;-57
2024/03/18 09:03:17;;;;;;;12.88;4.07;;;;;;;13.91;94.21;101272.28;5067678;28;20049;-56
2024/03/18 09:05:55;;;;;;;14.53;3.93;;;;;;;14.05;92.85;101278.47;5069117;28;20045;-56
2024/03/18 09:08:22;;;;;;;20.70;3.30;;;;;;;13.90;91.21;101280.88;5070953;28;20311;-57
2024/03/18 09:10:52;;;;;;;14.30;3.63;;;;;;;13.72;91.64;101270.91;5054593;28;20059;-56
2024/03/18 09:13:19;;;;;;;12.23;2.97;;;;;;;13.56;92.84;101273.28;5053868;28;20067;-59
2024/03/18 09:15:45;;;;;;;12.00;3.30;;;;;;;13.74;93.06;101274.97;5054837;28;20048;-55
2024/03/18 09:18:12;;;;;;;16.20;3.67;;;;;;;13.95;91.17;101277.94;5053914;28;20515;-57
2024/03/18 09:20:41;;;;;;;17.88;3.67;;;;;;;13.84;91.55;101263.63;5051065;28;20049;-59
2024/03/18 09:23:07;;;;;;;13.75;3.65;;;;;;;14.01;91.26;101271.13;5050255;28;20056;-54
2024/03/18 09:25:35;;;;;;;12.55;3.08;;;;;;;13.83;90.35;101269.44;5054574;28;20067;-57
2024/03/18 09:28:02;;;;;;;15.63;3.25;;;;;;;14.00;89.67;101272.28;5070523;28;20056;-57
2024/03/18 09:30:31;;;;;;;13.43;3.20;;;;;;;13.93;89.12;101277.50;5070792;28;20052;-56
2024/03/18 09:32:58;;;;;;;12.48;3.15;;;;;;;14.19;87.52;101278.34;5056207;28;20044;-58
2024/03/18 09:35:25;;;;;;;13.10;3.13;;;;;;;14.06;88.10;101280.13;5070259;28;20048;-56
2024/03/18 09:37:51;;;;;;;14.43;2.58;;;;;;;14.58;86.85;101279.06;5068735;28;20047;-57
2024/03/18 09:40:17;;;;;;;12.25;2.50;;;;;;;15.02;84.56;101283.41;5070707;28;20057;-59
2024/03/18 09:42:45;;;;;;;14.73;3.25;;;;;;;14.81;81.73;101285.25;5069736;28;20044;-57
2024/03/18 09:45:18;;;;;;;9.13;2.30;;;;;;;15.11;81.46;101278.66;5062854;28;20045;-59
2024/03/18 09:47:46;;;;;;;17.60;3.13;;;;;;;15.20;80.74;101282.22;5052036;28;20048;-57
2024/03/18 09:50:15;;;;;;;14.73;3.60;;;;;;;15.19;80.28;101283.38;5038544;28;20409;-55
2024/03/18 09:52:43;;;;;;;12.27;2.92;;;;;;;14.83;81.90;101299.59;5066483;28;20044;-56
2024/03/18 09:55:24;;;;;;;12.10;2.50;;;;;;;15.07;81.20;101285.19;5041721;28;20056;-57
2024/03/18 09:57:51;;;;;;;13.93;3.30;;;;;;;15.27;80.05;101282.53;5037134;28;20051;-56
2024/03/18 10:00:21;;;;;;;16.55;3.50;;;;;;;15.16;80.29;101286.81;5071331;28;20052;-54
2024/03/18 10:02:47;;;;;;;;;;;;;;;15.67;78.38;101280.31;5070246;28;20484;-58
2024/03/18 10:05:14;;;;;;;15.10;3.38;;;;;;;15.30;79.22;101290.22;5051927;28;19920;-57
2024/03/18 10:07:44;;;;;;;13.00;3.45;;;;;;;15.32;78.89;101287.09;5065664;28;20049;-59
2024/03/18 10:10:15;;;;;;;27.63;4.05;;;;;;;15.34;78.86;101290.38;5058434;28;20082;-61
2024/03/18 10:12:42;;;;;;;13.80;3.30;;;;;;;14.89;79.20;101297.47;5049704;28;20049;-55
2024/03/18 10:15:13;;;;;;;11.07;2.50;;;;;;;14.97;78.88;101288.31;5068118;28;20041;-58
2024/03/18 10:17:42;;;;;;;12.60;2.47;;;;;;;14.63;80.66;101291.94;5069592;28;20063;-55
2024/03/18 10:20:20;;;;;;;13.13;3.13;;;;;;;14.98;79.94;101290.75;5083361;28;20048;-54
2024/03/18 10:22:48;;;;;;;9.15;2.60;;;;;;;15.62;77.75;101283.28;5070556;28;20472;-57
2024/03/18 10:25:18;;;;;;;13.95;3.08;;;;;;;15.62;75.64;101280.50;5052473;28;20056;-58
2024/03/18 10:27:45;;;;;;;11.10;3.20;;;;;;;16.00;75.27;101289.59;5051209;28;20056;-56
2024/03/18 10:30:13;;;;;;;13.18;3.10;;;;;;;16.25;73.65;101288.63;5032716;28;20067;-55
2024/03/18 10:32:44;;;;;;;13.32;2.95;;;;;;;16.22;72.56;101286.50;5047078;28;20059;-59
2024/03/18 10:35:19;;;;;;;10.80;2.88;;;;;;;16.64;71.17;101282.63;5067190;28;20064;-56
2024/03/18 10:37:54;;;;;;;12.27;2.60;;;;;;;16.75;70.59;101272.69;5023959;28;20059;-58
2024/03/18 10:40:38;;;;;;;10.43;2.67;;;;;;;16.94;69.66;101274.16;5059159;28;20060;-56
2024/03/18 10:43:09;;;;;;;12.43;2.60;;;;;;;17.00;68.26;101268.03;5039415;28;20543;-57
2024/03/18 10:45:39;;;;;;;16.90;2.65;;;;;;;16.67;68.67;101273.59;5051992;28;20065;-53
2024/03/18 10:48:06;;;;;;;;;;;;;;;16.90;68.41;101279.59;5048886;28;20061;-58
2024/03/18 10:50:34;;;;;;;14.48;2.55;;;;;;;16.59;68.67;101270.88;5049494;28;19924;-58
2024/03/18 10:53:01;;;;;;;13.65;2.75;;;;;;;16.50;69.97;101281.28;5057959;28;20424;-57
2024/03/18 10:55:30;;;;;;;9.35;2.50;;;;;;;16.97;66.97;101274.28;5056008;28;20056;-60
2024/03/18 10:58:00;;;;;;;11.13;2.70;;;;;;;16.78;66.30;101276.78;5084796;28;20056;-57
2024/03/18 11:00:27;;;;;;;16.27;3.17;;;;;;;17.36;65.75;101267.31;5060371;28;20047;-58
2024/03/18 11:02:59;;;;;;;10.13;2.70;;;;;;;17.10;65.93;101262.06;5046154;28;20291;-57
2024/03/18 11:05:31;;;;;;;8.32;2.17;;;;;;;17.15;65.56;101270.19;5061592;28;20073;-60
2024/03/18 11:08:02;;;;;;;12.68;2.92;;;;;;;16.83;66.88;101273.78;5054962;28;20040;-58
2024/03/18 11:10:30;;;;;;;9.23;2.20;;;;;;;16.82;67.52;101272.97;5061729;28;20493;-58
2024/03/18 11:13:09;;;;;;;11.15;3.47;;;;;;;17.13;66.31;101272.50;5048480;28;20049;-56